Terminal Aerodrome Forecast
Issued by NWS

Home | Current Version | Previous Version | Graphics & Text | Print | Product List | Glossary On
Versions: 1 2 3 4 5 6 7 8 9 10 11 12 13 14 15 16 17
000
FTUS43 KMPX 261125
TAFAXN
TAF
KAXN 261125Z 2612/2712 23009KT P6SM VCSH SCT070 BKN100
     FM261600 26011KT P6SM SCT100 BKN250
     FM262100 VRB05KT P6SM SCT050 BKN100 PROB30 2621/2703 5SM -TSRA
      BKN040CB
     FM270500 35006KT P6SM SCT050 BKN100=

USA.gov is the U.S. government's official web portal to all federal, state and local government web resources and services.